Cheraw, SC

4:18 PM EST on February 14, 2016 (GMT -0500)
KSCCHERA3 | | Change Station
CLOSE
Current Station
Personal Weather Station
Location: Cheraw, SC
Elevation: 110 ft
Nearby Weather Stations
Active Advisory: Freezing Rain Advisory

Elev 110 ft 34.70 °N, 79.90 °W | Updated 2 minutes ago

Partly Cloudy
Partly Cloudy
32.4 °F
Feels Like 32 °F
N
0.0
Wind Variable Wind from East
Gusts 0.0 mph

Today
High -- | Low -- °F
--% Chance of Precip.
Yesterday
High -- | Low -- °F
Precip. -- in
Pressure 30.43 in
Visibility 10.0 miles
Clouds Clear
Windchill 32 °F
Dew Point 7 °F
Humidity 34%
Rainfall 0.00 in
Snow Depth Not available.
7:06 AM 6:01 PM
Waxing Crescent, 45% visible
METAR KCQW 142055Z AUTO 08006KT 10SM CLR 00/M21 A3043 RMK AO2
Pressure 30.43 in
Visibility 10.0 miles
Clouds Clear
Windchill 32 °F
Dew Point 7 °F
Humidity 34%
Rainfall 0.00 in
Snow Depth Not available.
7:06 AM 6:01 PM
Waxing Crescent, 45% visible
METAR KCQW 142055Z AUTO 08006KT 10SM CLR 00/M21 A3043 RMK AO2

10-Day Weather Forecast

Almanac

Astronomy

Feb. 14, 2016 Rise Set
Actual Time
Civil Twilight
Nautical Twilight
Astronomical Twilight
Moon
Length of Visible Light
Length of Day
Tomorrow will be .
, % of the Moon is Illuminated

Today's Extremes

State Highs State Lows

Community

WunderPhotos

Upload Photos

1,892,886 photos uploaded!

WunderBlog® & News

Nearby

Air Quality

  Air Quality AQ Index Pollutant
Not available.

Snow Depth

Station Depth Elevation

Earthquake Activity

City Distance Mag. Time & Date
Minimum magnitude displayed is 2.5.

Coastal Water Temperatures

Place Temperature

Stations

Nearby Weather Stations

Station Location Temp. Windchill Dew Point Humidity Wind Precip. Elev Updated Type
                   

Watches & Warnings

Freezing Rain Advisory
Issued: 2:51 PM EST Feb. 14, 2016 – National Weather Service

... Freezing Rain Advisory in effect from 1 am to noon EST
Monday...

The National Weather Service in Columbia has issued a Freezing
Rain Advisory... which is in effect from 1 am to noon EST Monday.

* Timing... 1 am through 12 PM EST Monday

* ice accumulations... trace amounts.

* Other impacts... light icing on elevated surfaces.

Precautionary/preparedness actions...

A Freezing Rain Advisory means that periods of freezing rain or
freezing drizzle will cause travel difficulties. Be prepared for
slippery roads. Slow down and use caution while driving.